sensor_id;sensor_type;location;lat;lon;timestamp;pressure;altitude;pressure_sealevel;temperature;humidity
59419;BME280;45224;50.904;6.038;2023-04-25T00:01:05;99279.56;;;8.33;73.04
59419;BME280;45224;50.904;6.038;2023-04-25T00:02:36;99272.72;;;8.32;73.40
59419;BME280;45224;50.904;6.038;2023-04-25T00:04:07;99276.16;;;8.31;73.14
59419;BME280;45224;50.904;6.038;2023-04-25T00:05:37;99276.16;;;8.32;72.87
59419;BME280;45224;50.904;6.038;2023-04-25T00:07:09;99278.72;;;8.28;73.72
59419;BME280;45224;50.904;6.038;2023-04-25T00:08:40;99274.41;;;8.28;73.87
59419;BME280;45224;50.904;6.038;2023-04-25T00:10:10;99275.28;;;8.29;73.25
59419;BME280;45224;50.904;6.038;2023-04-25T00:11:41;99264.13;;;8.17;73.56
59419;BME280;45224;50.904;6.038;2023-04-25T00:13:12;99279.56;;;8.27;73.26
59419;BME280;45224;50.904;6.038;2023-04-25T00:14:43;99279.56;;;8.25;73.43
59419;BME280;45224;50.904;6.038;2023-04-25T00:16:15;99272.72;;;8.22;73.41
59419;BME280;45224;50.904;6.038;2023-04-25T00:17:46;99274.44;;;8.22;74.01
59419;BME280;45224;50.904;6.038;2023-04-25T00:19:17;99272.69;;;8.19;74.11
59419;BME280;45224;50.904;6.038;2023-04-25T00:20:48;99267.56;;;8.21;73.64
59419;BME280;45224;50.904;6.038;2023-04-25T00:22:18;99260.69;;;8.21;73.55
59419;BME280;45224;50.904;6.038;2023-04-25T00:23:49;99272.69;;;8.21;73.99
59419;BME280;45224;50.904;6.038;2023-04-25T00:25:19;99270.97;;;8.15;73.98
59419;BME280;45224;50.904;6.038;2023-04-25T00:26:50;99264.97;;;8.12;74.66
59419;BME280;45224;50.904;6.038;2023-04-25T00:28:20;99274.41;;;8.11;74.25
59419;BME280;45224;50.904;6.038;2023-04-25T00:29:51;99272.69;;;8.12;74.19
59419;BME280;45224;50.904;6.038;2023-04-25T00:31:22;99270.97;;;8.09;73.88
59419;BME280;45224;50.904;6.038;2023-04-25T00:32:52;99279.56;;;8.11;73.95
59419;BME280;45224;50.904;6.038;2023-04-25T00:34:23;99279.53;;;8.05;74.20
59419;BME280;45224;50.904;6.038;2023-04-25T00:35:54;99278.66;;;7.98;74.48
59419;BME280;45224;50.904;6.038;2023-04-25T00:37:24;99285.56;;;8.01;74.62
59419;BME280;45224;50.904;6.038;2023-04-25T00:38:55;99286.41;;;7.98;74.92
59419;BME280;45224;50.904;6.038;2023-04-25T00:40:26;99280.41;;;7.99;74.36
59419;BME280;45224;50.904;6.038;2023-04-25T00:41:57;99284.66;;;7.99;74.43
59419;BME280;45224;50.904;6.038;2023-04-25T00:43:30;99293.25;;;7.95;75.25
59419;BME280;45224;50.904;6.038;2023-04-25T00:45:01;99294.09;;;7.95;74.99
59419;BME280;45224;50.904;6.038;2023-04-25T00:46:32;99282.09;;;7.90;76.06
59419;BME280;45224;50.904;6.038;2023-04-25T00:48:04;99288.06;;;7.85;75.90
59419;BME280;45224;50.904;6.038;2023-04-25T00:49:34;99278.63;;;7.86;75.65
59419;BME280;45224;50.904;6.038;2023-04-25T00:51:05;99278.59;;;7.78;76.84
59419;BME280;45224;50.904;6.038;2023-04-25T00:52:38;99277.72;;;7.73;76.66
59419;BME280;45224;50.904;6.038;2023-04-25T00:54:11;99282.06;;;7.80;76.37
59419;BME280;45224;50.904;6.038;2023-04-25T00:55:42;99282.88;;;7.76;77.39
59419;BME280;45224;50.904;6.038;2023-04-25T00:57:12;99281.19;;;7.75;76.82
59419;BME280;45224;50.904;6.038;2023-04-25T00:58:43;99280.28;;;7.70;76.72
59419;BME280;45224;50.904;6.038;2023-04-25T01:00:14;99283.75;;;7.71;76.66
59419;BME280;45224;50.904;6.038;2023-04-25T01:01:44;99288.03;;;7.73;76.80
59419;BME280;45224;50.904;6.038;2023-04-25T01:03:16;99276.00;;;7.66;77.13
59419;BME280;45224;50.904;6.038;2023-04-25T01:04:48;99287.09;;;7.57;78.18
59419;BME280;45224;50.904;6.038;2023-04-25T01:06:18;99282.63;;;7.15;79.26
59419;BME280;45224;50.904;6.038;2023-04-25T01:07:50;99289.63;;;7.40;79.00
59419;BME280;45224;50.904;6.038;2023-04-25T01:09:21;99292.25;;;7.51;78.40
59419;BME280;45224;50.904;6.038;2023-04-25T01:10:52;99285.38;;;7.53;77.79
59419;BME280;45224;50.904;6.038;2023-04-25T01:12:23;99289.66;;;7.46;78.44
59419;BME280;45224;50.904;6.038;2023-04-25T01:13:53;99289.66;;;7.48;78.36
59419;BME280;45224;50.904;6.038;2023-04-25T01:15:24;99278.44;;;7.35;79.12
59419;BME280;45224;50.904;6.038;2023-04-25T01:16:54;99281.91;;;7.40;78.85
59419;BME280;45224;50.904;6.038;2023-04-25T01:18:25;99287.91;;;7.45;78.57
59419;BME280;45224;50.904;6.038;2023-04-25T01:19:56;99283.63;;;7.41;78.61
59419;BME280;45224;50.904;6.038;2023-04-25T01:21:27;99285.34;;;7.44;78.50
59419;BME280;45224;50.904;6.038;2023-04-25T01:23:00;99297.38;;;7.49;78.22
59419;BME280;45224;50.904;6.038;2023-04-25T01:24:33;99288.75;;;7.38;78.63
59419;BME280;45224;50.904;6.038;2023-04-25T01:26:04;99295.59;;;7.31;79.21
59419;BME280;45224;50.904;6.038;2023-04-25T01:27:35;99291.31;;;7.37;78.63
59419;BME280;45224;50.904;6.038;2023-04-25T01:29:07;99282.72;;;7.36;78.10
59419;BME280;45224;50.904;6.038;2023-04-25T01:30:40;99285.34;;;7.45;77.88
59419;BME280;45224;50.904;6.038;2023-04-25T01:32:11;99298.22;;;7.45;78.37
59419;BME280;45224;50.904;6.038;2023-04-25T01:33:44;99287.09;;;7.48;77.90
59419;BME280;45224;50.904;6.038;2023-04-25T01:35:15;99289.63;;;7.45;78.13
59419;BME280;45224;50.904;6.038;2023-04-25T01:36:48;99289.66;;;7.46;78.02
59419;BME280;45224;50.904;6.038;2023-04-25T01:38:19;99299.88;;;7.37;78.81
59419;BME280;45224;50.904;6.038;2023-04-25T01:39:49;99284.50;;;7.43;78.03
59419;BME280;45224;50.904;6.038;2023-04-25T01:41:20;99293.09;;;7.53;77.61
59419;BME280;45224;50.904;6.038;2023-04-25T01:42:53;99290.50;;;7.50;77.84
59419;BME280;45224;50.904;6.038;2023-04-25T01:44:25;99290.50;;;7.48;77.89
59419;BME280;45224;50.904;6.038;2023-04-25T01:45:56;99293.09;;;7.52;78.21
59419;BME280;45224;50.904;6.038;2023-04-25T01:47:27;99297.41;;;7.54;77.74
59419;BME280;45224;50.904;6.038;2023-04-25T01:48:58;99293.13;;;7.55;78.17
59419;BME280;45224;50.904;6.038;2023-04-25T01:50:29;99292.22;;;7.48;78.74
59419;BME280;45224;50.904;6.038;2023-04-25T01:51:59;99296.47;;;7.44;78.80
59419;BME280;45224;50.904;6.038;2023-04-25T01:53:30;99295.59;;;7.38;79.05
59419;BME280;45224;50.904;6.038;2023-04-25T01:55:01;99301.63;;;7.41;79.24
59419;BME280;45224;50.904;6.038;2023-04-25T01:56:37;99295.59;;;7.36;79.26
59419;BME280;45224;50.904;6.038;2023-04-25T01:58:08;99299.03;;;7.35;79.55
59419;BME280;45224;50.904;6.038;2023-04-25T02:00:07;99291.28;;;7.29;79.99
59419;BME280;45224;50.904;6.038;2023-04-25T02:01:44;99304.09;;;7.23;80.93
59419;BME280;45224;50.904;6.038;2023-04-25T02:03:29;99300.56;;;7.05;81.97
59419;BME280;45224;50.904;6.038;2023-04-25T02:05:01;99304.03;;;7.12;81.46
59419;BME280;45224;50.904;6.038;2023-04-25T02:06:32;99301.50;;;7.20;80.75
59419;BME280;45224;50.904;6.038;2023-04-25T02:08:05;99299.69;;;7.03;81.47
59419;BME280;45224;50.904;6.038;2023-04-25T02:09:36;99308.28;;;7.08;81.60
59419;BME280;45224;50.904;6.038;2023-04-25T02:11:09;99303.19;;;7.15;81.08
59419;BME280;45224;50.904;6.038;2023-04-25T02:12:49;99312.66;;;7.19;80.86
59419;BME280;45224;50.904;6.038;2023-04-25T02:14:37;99312.53;;;7.02;82.48
59419;BME280;45224;50.904;6.038;2023-04-25T02:16:14;99309.19;;;7.15;81.30
59419;BME280;45224;50.904;6.038;2023-04-25T02:17:45;99308.34;;;7.18;81.42
59419;BME280;45224;50.904;6.038;2023-04-25T02:19:16;99310.06;;;7.16;81.66
59419;BME280;45224;50.904;6.038;2023-04-25T02:20:47;99302.38;;;7.17;81.18
59419;BME280;45224;50.904;6.038;2023-04-25T02:22:17;99305.66;;;6.99;82.56
59419;BME280;45224;50.904;6.038;2023-04-25T02:23:47;99311.72;;;7.07;82.16
59419;BME280;45224;50.904;6.038;2023-04-25T02:25:20;99311.75;;;7.15;81.60
59419;BME280;45224;50.904;6.038;2023-04-25T02:26:50;99311.78;;;7.20;81.08
59419;BME280;45224;50.904;6.038;2023-04-25T02:28:22;99306.59;;;7.13;81.26
59419;BME280;45224;50.904;6.038;2023-04-25T02:29:53;99310.94;;;7.19;81.33
59419;BME280;45224;50.904;6.038;2023-04-25T02:31:23;99304.06;;;7.20;80.82
59419;BME280;45224;50.904;6.038;2023-04-25T02:32:55;99310.06;;;7.22;81.14
59419;BME280;45224;50.904;6.038;2023-04-25T02:34:26;99311.72;;;7.04;82.32
59419;BME280;45224;50.904;6.038;2023-04-25T02:35:57;99310.03;;;7.11;81.76
59419;BME280;45224;50.904;6.038;2023-04-25T02:37:27;99312.59;;;7.11;81.93
59419;BME280;45224;50.904;6.038;2023-04-25T02:38:58;99306.56;;;7.10;81.73
59419;BME280;45224;50.904;6.038;2023-04-25T02:40:28;99315.22;;;7.19;81.50
59419;BME280;45224;50.904;6.038;2023-04-25T02:41:58;99313.38;;;6.98;82.55
59419;BME280;45224;50.904;6.038;2023-04-25T02:43:29;99311.69;;;7.01;82.60
59419;BME280;45224;50.904;6.038;2023-04-25T02:45:00;99314.31;;;7.09;82.05
59419;BME280;45224;50.904;6.038;2023-04-25T02:46:30;99308.25;;;7.05;82.08
59419;BME280;45224;50.904;6.038;2023-04-25T02:48:02;99316.84;;;7.06;82.04
59419;BME280;45224;50.904;6.038;2023-04-25T02:49:36;99316.03;;;7.11;81.80
59419;BME280;45224;50.904;6.038;2023-04-25T02:51:06;99307.41;;;7.05;82.03
59419;BME280;45224;50.904;6.038;2023-04-25T02:52:37;99316.00;;;7.10;81.88
59419;BME280;45224;50.904;6.038;2023-04-25T02:54:16;99322.03;;;7.17;81.28
59419;BME280;45224;50.904;6.038;2023-04-25T02:55:50;99321.22;;;7.18;81.30
59419;BME280;45224;50.904;6.038;2023-04-25T02:57:23;99320.38;;;7.19;81.48
59419;BME280;45224;50.904;6.038;2023-04-25T02:58:53;99324.56;;;7.04;82.48
59419;BME280;45224;50.904;6.038;2023-04-25T03:00:24;99319.44;;;7.07;82.05
59419;BME280;45224;50.904;6.038;2023-04-25T03:01:55;99321.16;;;7.11;82.01
59419;BME280;45224;50.904;6.038;2023-04-25T03:03:26;99316.84;;;7.03;82.21
59419;BME280;45224;50.904;6.038;2023-04-25T03:04:56;99309.94;;;6.97;82.32
59419;BME280;45224;50.904;6.038;2023-04-25T03:06:26;99311.69;;;7.03;81.91
59419;BME280;45224;50.904;6.038;2023-04-25T03:07:57;99316.84;;;7.06;81.47
59419;BME280;45224;50.904;6.038;2023-04-25T03:09:28;99320.22;;;7.00;82.25
59419;BME280;45224;50.904;6.038;2023-04-25T03:10:58;99328.81;;;7.02;82.33
59419;BME280;45224;50.904;6.038;2023-04-25T03:12:29;99319.44;;;7.10;81.70
59419;BME280;45224;50.904;6.038;2023-04-25T03:13:59;99316.00;;;7.10;81.68
59419;BME280;45224;50.904;6.038;2023-04-25T03:15:30;99313.41;;;7.07;81.73
59419;BME280;45224;50.904;6.038;2023-04-25T03:17:01;99322.84;;;7.06;81.96
59419;BME280;45224;50.904;6.038;2023-04-25T03:18:32;99323.66;;;7.02;82.18
59419;BME280;45224;50.904;6.038;2023-04-25T03:20:03;99326.25;;;7.04;82.03
59419;BME280;45224;50.904;6.038;2023-04-25T03:21:35;99321.88;;;6.90;82.66
59419;BME280;45224;50.904;6.038;2023-04-25T03:23:06;99324.53;;;7.00;81.97
59419;BME280;45224;50.904;6.038;2023-04-25T03:24:36;99318.50;;;6.99;81.68
59419;BME280;45224;50.904;6.038;2023-04-25T03:26:07;99321.75;;;6.76;83.40
59419;BME280;45224;50.904;6.038;2023-04-25T03:27:38;99326.94;;;6.83;82.86
59419;BME280;45224;50.904;6.038;2023-04-25T03:29:10;99320.09;;;6.79;83.12
59419;BME280;45224;50.904;6.038;2023-04-25T03:30:42;99316.72;;;6.87;82.39
59419;BME280;45224;50.904;6.038;2023-04-25T03:32:13;99318.28;;;6.71;83.57
59419;BME280;45224;50.904;6.038;2023-04-25T03:33:44;99323.56;;;6.87;82.36
59419;BME280;45224;50.904;6.038;2023-04-25T03:35:15;99323.59;;;6.90;81.90
59419;BME280;45224;50.904;6.038;2023-04-25T03:36:45;99321.88;;;6.92;81.71
59419;BME280;45224;50.904;6.038;2023-04-25T03:38:17;99323.63;;;6.93;81.97
59419;BME280;45224;50.904;6.038;2023-04-25T03:39:49;99322.75;;;6.94;81.54
59419;BME280;45224;50.904;6.038;2023-04-25T03:41:20;99324.44;;;6.90;81.66
59419;BME280;45224;50.904;6.038;2023-04-25T03:42:55;99328.66;;;6.81;82.36
59419;BME280;45224;50.904;6.038;2023-04-25T03:44:26;99329.56;;;6.87;81.99
59419;BME280;45224;50.904;6.038;2023-04-25T03:45:57;99326.94;;;6.83;82.24
59419;BME280;45224;50.904;6.038;2023-04-25T03:47:29;99327.00;;;6.89;82.04
59419;BME280;45224;50.904;6.038;2023-04-25T03:49:00;99324.41;;;6.84;82.18
59419;BME280;45224;50.904;6.038;2023-04-25T03:50:41;99321.84;;;6.86;81.61
59419;BME280;45224;50.904;6.038;2023-04-25T03:52:12;99326.94;;;6.83;82.17
59419;BME280;45224;50.904;6.038;2023-04-25T03:53:44;99330.44;;;6.91;81.77
59419;BME280;45224;50.904;6.038;2023-04-25T03:55:24;99325.28;;;6.85;82.31
59419;BME280;45224;50.904;6.038;2023-04-25T03:56:54;99326.19;;;6.93;81.48
59419;BME280;45224;50.904;6.038;2023-04-25T03:58:27;99333.94;;;6.96;81.27
59419;BME280;45224;50.904;6.038;2023-04-25T03:59:58;99333.06;;;6.97;81.12
59419;BME280;45224;50.904;6.038;2023-04-25T04:01:29;99330.50;;;7.00;80.89
59419;BME280;45224;50.904;6.038;2023-04-25T04:02:59;99337.34;;;6.98;81.22
59419;BME280;45224;50.904;6.038;2023-04-25T04:04:30;99339.09;;;7.02;80.90
59419;BME280;45224;50.904;6.038;2023-04-25T04:06:04;99335.56;;;6.91;81.69
59419;BME280;45224;50.904;6.038;2023-04-25T04:07:38;99341.63;;;6.99;81.11
59419;BME280;45224;50.904;6.038;2023-04-25T04:09:11;99335.59;;;6.94;81.67
59419;BME280;45224;50.904;6.038;2023-04-25T04:10:44;99338.13;;;6.83;82.54
59419;BME280;45224;50.904;6.038;2023-04-25T04:12:14;99339.88;;;6.90;82.13
59419;BME280;45224;50.904;6.038;2023-04-25T04:13:46;99343.28;;;6.92;81.66
59419;BME280;45224;50.904;6.038;2023-04-25T04:15:16;99343.22;;;6.79;82.58
59419;BME280;45224;50.904;6.038;2023-04-25T04:16:48;99338.94;;;6.81;82.10
59419;BME280;45224;50.904;6.038;2023-04-25T04:18:19;99344.97;;;6.86;82.19
59419;BME280;45224;50.904;6.038;2023-04-25T04:19:50;99340.69;;;6.88;81.76
59419;BME280;45224;50.904;6.038;2023-04-25T04:21:23;99344.03;;;6.78;82.86
59419;BME280;45224;50.904;6.038;2023-04-25T04:22:54;99356.91;;;6.81;82.76
59419;BME280;45224;50.904;6.038;2023-04-25T04:24:25;99361.13;;;6.72;81.99
59419;BME280;45224;50.904;6.038;2023-04-25T04:26:01;99346.63;;;6.78;82.37
59419;BME280;45224;50.904;6.038;2023-04-25T04:27:32;99357.63;;;6.61;83.49
59419;BME280;45224;50.904;6.038;2023-04-25T04:29:25;99355.97;;;6.69;82.64
59419;BME280;45224;50.904;6.038;2023-04-25T04:31:03;99361.97;;;6.70;82.60
59419;BME280;45224;50.904;6.038;2023-04-25T04:32:34;99359.34;;;6.67;82.89
59419;BME280;45224;50.904;6.038;2023-04-25T04:34:08;99361.13;;;6.71;82.64
59419;BME280;45224;50.904;6.038;2023-04-25T04:35:40;99355.16;;;6.72;82.48
59419;BME280;45224;50.904;6.038;2023-04-25T04:37:11;99365.44;;;6.78;82.61
59419;BME280;45224;50.904;6.038;2023-04-25T04:38:43;99364.38;;;6.53;83.93
59419;BME280;45224;50.904;6.038;2023-04-25T04:40:22;99349.09;;;6.68;83.39
59419;BME280;45224;50.904;6.038;2023-04-25T04:42:08;99362.78;;;6.66;83.79
59419;BME280;45224;50.904;6.038;2023-04-25T04:43:49;99363.69;;;6.69;83.42
59419;BME280;45224;50.904;6.038;2023-04-25T04:45:52;99365.34;;;6.64;83.65
59419;BME280;45224;50.904;6.038;2023-04-25T04:47:44;99365.97;;;6.38;84.67
59419;BME280;45224;50.904;6.038;2023-04-25T04:49:37;99369.47;;;6.47;84.83
59419;BME280;45224;50.904;6.038;2023-04-25T04:51:34;99364.44;;;6.59;84.51
59419;BME280;45224;50.904;6.038;2023-04-25T04:53:27;99367.94;;;6.67;84.08
59419;BME280;45224;50.904;6.038;2023-04-25T04:55:17;99370.47;;;6.63;84.36
59419;BME280;45224;50.904;6.038;2023-04-25T04:57:07;99373.13;;;6.70;83.77
59419;BME280;45224;50.904;6.038;2023-04-25T04:58:59;99376.59;;;6.79;83.51
59419;BME280;45224;50.904;6.038;2023-04-25T05:00:30;99381.78;;;6.82;83.96
59419;BME280;45224;50.904;6.038;2023-04-25T05:02:15;99386.91;;;6.82;83.30
59419;BME280;45224;50.904;6.038;2023-04-25T05:03:56;99390.31;;;6.81;83.38
59419;BME280;45224;50.904;6.038;2023-04-25T05:05:51;99386.03;;;6.81;83.07
59419;BME280;45224;50.904;6.038;2023-04-25T05:07:47;99400.47;;;6.67;83.90
59419;BME280;45224;50.904;6.038;2023-04-25T05:09:39;99402.25;;;6.72;83.63
59419;BME280;45224;50.904;6.038;2023-04-25T05:11:15;99408.28;;;6.78;83.55
59419;BME280;45224;50.904;6.038;2023-04-25T05:12:59;99404.88;;;6.79;83.90
59419;BME280;45224;50.904;6.038;2023-04-25T05:14:48;99401.44;;;6.81;83.31
59419;BME280;45224;50.904;6.038;2023-04-25T05:16:37;99410.84;;;6.78;83.32
59419;BME280;45224;50.904;6.038;2023-04-25T05:18:26;99404.00;;;6.80;82.77
59419;BME280;45224;50.904;6.038;2023-04-25T05:20:20;99414.28;;;6.78;82.86
59419;BME280;45224;50.904;6.038;2023-04-25T05:22:09;99401.41;;;6.78;82.64
59419;BME280;45224;50.904;6.038;2023-04-25T05:24:06;99410.97;;;6.88;82.00
59419;BME280;45224;50.904;6.038;2023-04-25T05:25:36;99417.81;;;6.91;81.87
59419;BME280;45224;50.904;6.038;2023-04-25T05:27:25;99421.25;;;6.90;81.60
59419;BME280;45224;50.904;6.038;2023-04-25T05:29:12;99418.44;;;6.64;82.41
59419;BME280;45224;50.904;6.038;2023-04-25T05:31:11;99419.38;;;6.70;81.85
59419;BME280;45224;50.904;6.038;2023-04-25T05:32:56;99426.16;;;6.68;81.85
59419;BME280;45224;50.904;6.038;2023-04-25T05:34:27;99427.88;;;6.66;82.63
59419;BME280;45224;50.904;6.038;2023-04-25T05:36:01;99422.84;;;6.79;81.94
59419;BME280;45224;50.904;6.038;2023-04-25T05:37:31;99431.41;;;6.78;82.32
59419;BME280;45224;50.904;6.038;2023-04-25T05:39:10;99428.53;;;6.47;82.16
59419;BME280;45224;50.904;6.038;2023-04-25T05:40:59;99432.78;;;6.45;83.15
59419;BME280;45224;50.904;6.038;2023-04-25T05:42:48;99424.03;;;6.27;84.15
59419;BME280;45224;50.904;6.038;2023-04-25T05:44:41;99430.19;;;6.42;83.71
59419;BME280;45224;50.904;6.038;2023-04-25T05:46:23;99428.50;;;6.45;82.86
59419;BME280;45224;50.904;6.038;2023-04-25T05:48:12;99432.03;;;6.55;82.89
59419;BME280;45224;50.904;6.038;2023-04-25T05:50:02;99439.84;;;6.64;82.81
59419;BME280;45224;50.904;6.038;2023-04-25T05:51:51;99444.72;;;6.38;84.40
59419;BME280;45224;50.904;6.038;2023-04-25T05:53:42;99444.91;;;6.58;83.63
59419;BME280;45224;50.904;6.038;2023-04-25T05:55:12;99451.59;;;6.44;83.81
59419;BME280;45224;50.904;6.038;2023-04-25T05:56:44;99450.56;;;6.28;83.53
59419;BME280;45224;50.904;6.038;2023-04-25T05:58:14;99448.88;;;6.31;83.56
59419;BME280;45224;50.904;6.038;2023-04-25T05:59:44;99449.88;;;6.39;83.59
59419;BME280;45224;50.904;6.038;2023-04-25T06:01:15;99451.56;;;6.40;83.60
59419;BME280;45224;50.904;6.038;2023-04-25T06:02:47;99452.41;;;6.41;82.97
59419;BME280;45224;50.904;6.038;2023-04-25T06:04:18;99453.22;;;6.34;83.06
59419;BME280;45224;50.904;6.038;2023-04-25T06:05:49;99448.25;;;6.48;82.90
59419;BME280;45224;50.904;6.038;2023-04-25T06:07:20;99448.28;;;6.54;83.42
59419;BME280;45224;50.904;6.038;2023-04-25T06:08:50;99454.38;;;6.62;82.68
59419;BME280;45224;50.904;6.038;2023-04-25T06:10:21;99459.38;;;6.50;82.71
59419;BME280;45224;50.904;6.038;2023-04-25T06:11:52;99453.34;;;6.45;82.08
59419;BME280;45224;50.904;6.038;2023-04-25T06:13:22;99452.75;;;6.69;82.65
59419;BME280;45224;50.904;6.038;2023-04-25T06:14:53;99457.00;;;6.70;82.25
59419;BME280;45224;50.904;6.038;2023-04-25T06:16:24;99469.00;;;6.69;81.71
59419;BME280;45224;50.904;6.038;2023-04-25T06:17:56;99471.59;;;6.71;81.68
59419;BME280;45224;50.904;6.038;2023-04-25T06:19:26;99464.00;;;6.82;81.24
59419;BME280;45224;50.904;6.038;2023-04-25T06:20:57;99469.81;;;6.64;80.97
59419;BME280;45224;50.904;6.038;2023-04-25T06:22:28;99466.31;;;6.58;80.99
59419;BME280;45224;50.904;6.038;2023-04-25T06:23:58;99476.50;;;6.48;81.18
59419;BME280;45224;50.904;6.038;2023-04-25T06:25:29;99463.81;;;6.63;80.52
59419;BME280;45224;50.904;6.038;2023-04-25T06:27:00;99469.03;;;6.72;80.93
59419;BME280;45224;50.904;6.038;2023-04-25T06:28:30;99470.09;;;6.90;80.05
59419;BME280;45224;50.904;6.038;2023-04-25T06:30:01;99465.81;;;6.92;79.20
59419;BME280;45224;50.904;6.038;2023-04-25T06:31:34;99467.88;;;6.46;79.54
59419;BME280;45224;50.904;6.038;2023-04-25T06:33:04;99465.75;;;6.86;79.55
59419;BME280;45224;50.904;6.038;2023-04-25T06:34:36;99458.25;;;7.06;79.19
59419;BME280;45224;50.904;6.038;2023-04-25T06:36:06;99464.06;;;6.91;78.60
59419;BME280;45224;50.904;6.038;2023-04-25T06:37:37;99469.47;;;7.16;78.56
59419;BME280;45224;50.904;6.038;2023-04-25T06:39:07;99476.34;;;7.20;77.50
59419;BME280;45224;50.904;6.038;2023-04-25T06:40:39;99472.88;;;7.15;77.26
59419;BME280;45224;50.904;6.038;2023-04-25T06:42:11;99482.31;;;7.16;77.75
59419;BME280;45224;50.904;6.038;2023-04-25T06:43:50;99479.59;;;7.02;77.10
59419;BME280;45224;50.904;6.038;2023-04-25T06:45:28;99481.38;;;7.07;76.98
59419;BME280;45224;50.904;6.038;2023-04-25T06:46:59;99490.41;;;6.70;77.35
59419;BME280;45224;50.904;6.038;2023-04-25T06:48:29;99485.38;;;6.78;77.78
59419;BME280;45224;50.904;6.038;2023-04-25T06:50:00;99485.38;;;6.79;77.58
59419;BME280;45224;50.904;6.038;2023-04-25T06:51:30;99497.56;;;6.99;76.18
59419;BME280;45224;50.904;6.038;2023-04-25T06:53:01;99495.66;;;6.79;76.97
59419;BME280;45224;50.904;6.038;2023-04-25T06:54:33;99492.38;;;6.94;77.66
59419;BME280;45224;50.904;6.038;2023-04-25T06:56:09;99494.69;;;6.69;77.76
59419;BME280;45224;50.904;6.038;2023-04-25T06:57:54;99497.03;;;6.48;78.90
59419;BME280;45224;50.904;6.038;2023-04-25T06:59:45;99498.09;;;6.67;78.30
59419;BME280;45224;50.904;6.038;2023-04-25T07:01:16;99500.56;;;6.57;78.65
59419;BME280;45224;50.904;6.038;2023-04-25T07:02:46;99498.97;;;6.67;78.18
59419;BME280;45224;50.904;6.038;2023-04-25T07:04:16;99496.97;;;6.43;78.53
59419;BME280;45224;50.904;6.038;2023-04-25T07:05:52;99503.13;;;6.56;78.35
59419;BME280;45224;50.904;6.038;2023-04-25T07:07:23;99501.31;;;6.49;78.44
59419;BME280;45224;50.904;6.038;2023-04-25T07:08:59;99499.81;;;6.66;77.82
59419;BME280;45224;50.904;6.038;2023-04-25T07:10:29;99494.84;;;6.82;78.12
59419;BME280;45224;50.904;6.038;2023-04-25T07:12:01;99503.56;;;6.96;77.71
59419;BME280;45224;50.904;6.038;2023-04-25T07:13:31;99501.00;;;7.01;76.21
59419;BME280;45224;50.904;6.038;2023-04-25T07:15:02;99501.88;;;7.01;75.62
59419;BME280;45224;50.904;6.038;2023-04-25T07:16:36;99511.34;;;7.07;75.87
59419;BME280;45224;50.904;6.038;2023-04-25T07:18:06;99510.28;;;6.88;74.86
59419;BME280;45224;50.904;6.038;2023-04-25T07:19:37;99507.78;;;6.94;75.09
59419;BME280;45224;50.904;6.038;2023-04-25T07:21:10;99512.34;;;7.20;75.07
59419;BME280;45224;50.904;6.038;2023-04-25T07:22:41;99514.16;;;7.33;74.00
59419;BME280;45224;50.904;6.038;2023-04-25T07:24:12;99516.00;;;7.46;73.00
59419;BME280;45224;50.904;6.038;2023-04-25T07:25:47;99521.16;;;7.46;72.26
59419;BME280;45224;50.904;6.038;2023-04-25T07:27:22;99524.66;;;7.55;72.40
59419;BME280;45224;50.904;6.038;2023-04-25T07:29:00;99520.47;;;7.67;71.90
59419;BME280;45224;50.904;6.038;2023-04-25T07:30:30;99523.81;;;7.59;72.79
59419;BME280;45224;50.904;6.038;2023-04-25T07:32:01;99520.44;;;7.64;73.18
59419;BME280;45224;50.904;6.038;2023-04-25T07:33:31;99531.63;;;7.71;72.53
59419;BME280;45224;50.904;6.038;2023-04-25T07:35:02;99528.22;;;7.78;73.87
59419;BME280;45224;50.904;6.038;2023-04-25T07:36:33;99523.13;;;7.86;72.51
59419;BME280;45224;50.904;6.038;2023-04-25T07:38:04;99524.06;;;7.90;72.02
59419;BME280;45224;50.904;6.038;2023-04-25T07:39:36;99524.19;;;8.13;71.20
59419;BME280;45224;50.904;6.038;2023-04-25T07:41:07;99526.81;;;8.20;68.87
59419;BME280;45224;50.904;6.038;2023-04-25T07:42:38;99529.31;;;8.10;68.59
59419;BME280;45224;50.904;6.038;2023-04-25T07:44:09;99525.00;;;8.07;68.08
59419;BME280;45224;50.904;6.038;2023-04-25T07:45:40;99540.50;;;8.16;68.89
59419;BME280;45224;50.904;6.038;2023-04-25T07:47:11;99537.16;;;8.33;68.44
59419;BME280;45224;50.904;6.038;2023-04-25T07:48:41;99540.69;;;8.47;69.92
59419;BME280;45224;50.904;6.038;2023-04-25T07:50:11;99535.28;;;8.07;64.14
59419;BME280;45224;50.904;6.038;2023-04-25T07:51:42;99545.56;;;8.04;65.08
59419;BME280;45224;50.904;6.038;2023-04-25T07:53:16;99553.25;;;7.93;65.13
59419;BME280;45224;50.904;6.038;2023-04-25T07:54:53;99547.31;;;8.05;66.30
59419;BME280;45224;50.904;6.038;2023-04-25T07:56:31;99544.78;;;8.14;68.67
59419;BME280;45224;50.904;6.038;2023-04-25T07:58:01;99547.25;;;7.99;68.93
59419;BME280;45224;50.904;6.038;2023-04-25T07:59:34;99552.56;;;8.27;67.69
59419;BME280;45224;50.904;6.038;2023-04-25T08:01:06;99554.34;;;8.37;66.73
59419;BME280;45224;50.904;6.038;2023-04-25T08:02:55;99549.31;;;8.55;66.54
59419;BME280;45224;50.904;6.038;2023-04-25T08:04:26;99557.03;;;8.52;63.94
59419;BME280;45224;50.904;6.038;2023-04-25T08:06:04;99558.78;;;8.59;63.47
59419;BME280;45224;50.904;6.038;2023-04-25T08:07:38;99556.91;;;8.31;64.38
59419;BME280;45224;50.904;6.038;2023-04-25T08:09:10;99564.66;;;8.37;63.32
59419;BME280;45224;50.904;6.038;2023-04-25T08:10:43;99569.09;;;8.59;63.17
59419;BME280;45224;50.904;6.038;2023-04-25T08:12:13;99571.63;;;8.53;61.41
59419;BME280;45224;50.904;6.038;2023-04-25T08:13:44;99573.19;;;8.30;62.76
59419;BME280;45224;50.904;6.038;2023-04-25T08:15:14;99572.22;;;8.14;62.19
59419;BME280;45224;50.904;6.038;2023-04-25T08:16:46;99574.03;;;8.22;60.37
59419;BME280;45224;50.904;6.038;2023-04-25T08:18:17;99583.50;;;8.33;62.10
59419;BME280;45224;50.904;6.038;2023-04-25T08:19:49;99589.66;;;8.50;60.99
59419;BME280;45224;50.904;6.038;2023-04-25T08:21:27;99592.22;;;8.47;61.49
59419;BME280;45224;50.904;6.038;2023-04-25T08:22:59;99592.31;;;8.61;60.73
59419;BME280;45224;50.904;6.038;2023-04-25T08:24:36;99588.88;;;8.67;60.73